MUCF/CFG METAR and TAF weather

Enter ICAO airport designator
Station Type Date Time Source
MUCF METAR 2018/12/12 06:59 UTC NOAA

MUCF 120659Z AUTO 06005KT 030V100 19/15 Q1021


Station Type Date Time Source
MUCF Decoded METAR 2018/12/12 06:59 UTC NOAA

Cienfuegos, Las Villas, Cuba (MUCF) 22-09N 080-24W 39M
Dec 12, 2018 - 01:59 AM EST / 2018.12.12 0659 UTC
Wind: from the ENE (060 degrees) at 6 MPH (5 KT) (direction variable):0
Temperature: 66 F (19 C)
Dew Point: 59 F (15 C)
Relative Humidity: 77%
Pressure (altimeter): 30.15 in. Hg (1021 hPa)
ob: MUCF 120659Z AUTO 06005KT 030V100 19/15 Q1021
cycle: 7

Station Type Date Time Source
MUCF TAF 2018/12/11 18:03 UTC NOAA

MUCF 111700Z 1118/1206 03010KT 9000 BKN020


Example: see airport list